| Temp | 59.5 °F 3.6 |
|---|---|
| RH | 75 % 4 |
| Dew Pt | 51.6 °F 2.0 |
| Wet Bulb | 55.8 °F 2.6 |
| Wind Dir | N | 0 ° |
| Wind Spd | 0.0 mph 0.0 |
| Wind Gust | 0.0 mph 2.1 |
| Solar Rad | 275 W/m2 12 |
| BatVolt | 12.9 V 0.0 |
| Daily Max Temp | 60.5 °F 3.0 |
|---|---|
| Time of Max Temp | 0758 |
| Daily Min Temp | 46.2 °F 4.6 |
| Time of Min Temp | 0602 |
| Daily Max Wind | 4.1 mph 0.3 |
| Time of Max Wind | 0119 |
| Max Wind Dir | S | 188 ° |
| Daily Rain | 0.00 In |
| Daily ETo | 0.000 in 0.000 |
| Yest MaxT | 81.6 °F |
| Yest MinT | 41.6 °F |
| Yest MaxGst | 15.8 mph |
| Yest Precip | 0.00 In |
| Yest ETo | 0.22 In |
| Date & Time | Temp (°F) | Heat Index (°F) | WindChill (°F) | RH (%) | Dew Pt (°F) | Wet Bulb (°F) | Wind Dir (°) | Wind Spd (mph) | Wind Gust (mph) | Wind Gst Dir (°) | Solar Rad (W/m2) | Latest Rain (In) | Daily Rain (In) | Daily Min Temp (°F) | Daily Max Temp (°F) | Daily ETo (in) |
|---|---|---|---|---|---|---|---|---|---|---|---|---|---|---|---|---|
| 5/9/26 - 0800 | 55.6 | - | - | 85 | 51.2 | 54.0 | SSW | 197 | 0.8 | 3.1 | S | 191 | 206 | 0.00 | 0.00 | 46.2 | 60.5 | 0.003 |
| 5/9/26 - 0700 | 47.4 | - | - | 100 | 47.4 | 48.0 | S | 191 | 2.6 | 3.8 | SSW | 205 | 30 | 0.00 | 0.00 | 46.2 | 50.7 | 0.000 |
| 5/9/26 - 0600 | 46.7 | - | - | 100 | 46.7 | 47.3 | SSW | 193 | 2.8 | 3.8 | S | 189 | 0 | 0.00 | 0.00 | 46.3 | 50.7 | 0.000 |
| 5/9/26 - 0500 | 47.2 | - | - | 100 | 47.2 | 47.8 | S | 191 | 2.7 | 4.1 | S | 178 | 0 | 0.00 | 0.00 | 46.6 | 50.7 | 0.000 |
| 5/9/26 - 0400 | 47.9 | - | - | 100 | 47.9 | 48.6 | SSW | 193 | 1.8 | 3.4 | SSW | 198 | 0 | 0.00 | 0.00 | 47.4 | 50.7 | 0.000 |
| 5/9/26 - 0300 | 48.3 | - | - | 100 | 48.2 | 49.0 | SSW | 193 | 2.9 | 4.1 | S | 190 | 0 | 0.00 | 0.00 | 48.0 | 50.7 | 0.000 |
| 5/9/26 - 0200 | 49.8 | - | - | 96 | 48.6 | 49.8 | S | 189 | 3.0 | 4.1 | S | 188 | 0 | 0.00 | 0.00 | 48.6 | 50.7 | 0.000 |
| 5/9/26 - 0100 | 51.7 | - | - | 90 | 49.0 | 51.0 | S | 190 | 2.8 | 4.4 | S | 177 | 0 | 0.00 | 0.00 | 41.6 | 81.6 | 0.217 |
| 5/9/26 - 0000 | 52.7 | - | - | 88 | 49.1 | 51.5 | SSW | 196 | 2.4 | 3.8 | S | 189 | 0 | 0.00 | 0.00 | 41.6 | 81.6 | 0.217 |
| 5/8/26 - 2300 | 54.7 | - | - | 83 | 49.6 | 52.7 | SSW | 200 | 2.3 | 3.8 | SW | 215 | 0 | 0.00 | 0.00 | 41.6 | 81.6 | 0.217 |
| 5/8/26 - 2200 | 59.7 | - | - | 67 | 48.8 | 54.2 | SSE | 161 | 0.6 | 3.4 | SE | 136 | 0 | 0.00 | 0.00 | 41.6 | 81.6 | 0.217 |
| 5/8/26 - 2100 | 65.0 | - | - | 53 | 47.6 | 55.3 | SSW | 204 | 3.0 | 9.8 | SW | 218 | 2 | 0.00 | 0.00 | 41.6 | 81.6 | 0.217 |
| 5/8/26 - 2000 | 69.6 | - | - | 49 | 49.4 | 57.7 | SW | 231 | 6.6 | 13.5 | SW | 233 | 80 | 0.00 | 0.00 | 41.6 | 81.6 | 0.216 |
| 5/8/26 - 1900 | 75.0 | - | - | 44 | 51.5 | 60.3 | WSW | 248 | 6.2 | 14.5 | SW | 232 | 260 | 0.00 | 0.00 | 41.6 | 81.6 | 0.213 |
| 5/8/26 - 1800 | 77.9 | - | - | 39 | 50.9 | 60.6 | WSW | 243 | 6.8 | 14.2 | W | 272 | 452 | 0.00 | 0.00 | 41.6 | 81.6 | 0.204 |
| 5/8/26 - 1700 | 79.1 | - | - | 38 | 51.0 | 61.0 | WSW | 248 | 7.8 | 14.2 | WSW | 250 | 633 | 0.00 | 0.00 | 41.6 | 81.6 | 0.189 |
| 5/8/26 - 1600 | 79.9 | - | - | 40 | 53.2 | 62.4 | WSW | 247 | 7.9 | 14.8 | WSW | 237 | 780 | 0.00 | 0.00 | 41.6 | 81.6 | 0.169 |
| 5/8/26 - 1500 | 80.8 | - | - | 36 | 51.4 | 61.5 | SW | 235 | 7.6 | 15.8 | SW | 234 | 877 | 0.00 | 0.00 | 41.6 | 81.6 | 0.145 |
| 5/8/26 - 1400 | 79.3 | - | - | 39 | 51.9 | 61.5 | NNE | 15 | 3.7 | 11.5 | WSW | 243 | 925 | 0.00 | 0.00 | 41.6 | 81.5 | 0.118 |
| 5/8/26 - 1300 | 77.1 | - | - | 46 | 54.7 | 62.7 | WNW | 287 | 2.5 | 7.1 | NE | 36 | 924 | 0.00 | 0.00 | 41.6 | 78.8 | 0.091 |
| 5/8/26 - 1200 | 72.1 | - | - | 57 | 56.2 | 62.5 | NNE | 16 | 4.4 | 9.8 | N | 5 | 858 | 0.00 | 0.00 | 41.6 | 74.1 | 0.066 |
| 5/8/26 - 1100 | 69.9 | - | - | 57 | 53.9 | 60.5 | N | 359 | 3.3 | 8.1 | NNE | 31 | 747 | 0.00 | 0.00 | 41.6 | 72.0 | 0.044 |
| 5/8/26 - 1000 | 65.6 | - | - | 62 | 52.3 | 58.2 | NNW | 327 | 0.9 | 4.8 | NNE | 32 | 593 | 0.00 | 0.00 | 41.6 | 68.5 | 0.025 |
| 5/8/26 - 0900 | 60.1 | - | - | 71 | 50.7 | 55.4 | NNE | 30 | 1.8 | 4.4 | NNE | 27 | 408 | 0.00 | 0.00 | 41.6 | 63.4 | 0.011 |
| 5/8/26 - 0800 | 51.4 | - | - | 88 | 47.8 | 50.1 | SSW | 193 | 1.0 | 4.1 | SSW | 198 | 217 | 0.00 | 0.00 | 41.6 | 57.5 | 0.003 |
| 5/8/26 - 0700 | 43.1 | - | - | 100 | 43.1 | 43.5 | S | 182 | 2.5 | 4.4 | S | 177 | 25 | 0.00 | 0.00 | 41.6 | 48.9 | 0.000 |
| 5/8/26 - 0600 | 42.0 | - | 40.6 | 100 | 42.0 | 42.3 | S | 189 | 3.1 | 4.1 | S | 172 | 0 | 0.00 | 0.00 | 41.6 | 48.9 | 0.000 |
| 5/8/26 - 0500 | 42.5 | - | - | 100 | 42.5 | 42.8 | S | 186 | 2.1 | 4.1 | SSW | 204 | 0 | 0.00 | 0.00 | 42.0 | 48.9 | 0.000 |
| 5/8/26 - 0400 | 43.4 | - | - | 100 | 43.4 | 43.8 | SSW | 194 | 2.6 | 4.1 | S | 171 | 0 | 0.00 | 0.00 | 42.4 | 48.9 | 0.000 |
| 5/8/26 - 0300 | 45.1 | - | - | 100 | 45.1 | 45.6 | SSW | 194 | 2.8 | 4.1 | SSW | 201 | 0 | 0.00 | 0.00 | 43.9 | 48.9 | 0.000 |
| 5/8/26 - 0200 | 47.9 | - | 47.2 | 100 | 47.9 | 48.6 | SSW | 192 | 3.0 | 4.1 | S | 186 | 0 | 0.00 | 0.00 | 46.6 | 48.9 | 0.000 |
| 5/8/26 - 0100 | 49.8 | - | - | 100 | 49.8 | 50.6 | SSW | 199 | 2.6 | 4.1 | SSW | 199 | 0 | 0.00 | 0.00 | 46.4 | 82.0 | 0.212 |
| 5/8/26 - 0000 | 53.0 | - | - | 100 | 53.1 | 54.2 | SSW | 193 | 2.4 | 3.8 | SSW | 204 | 0 | 0.00 | 0.00 | 46.4 | 82.0 | 0.212 |
| 5/7/26 - 2300 | 55.9 | - | - | 95 | 54.6 | 56.3 | SSW | 194 | 1.7 | 3.8 | SSW | 195 | 0 | 0.00 | 0.00 | 46.4 | 82.0 | 0.212 |
| 5/7/26 - 2200 | 62.1 | - | - | 80 | 55.9 | 59.5 | WSW | 252 | 0.6 | 5.8 | WSW | 250 | 0 | 0.00 | 0.00 | 46.4 | 82.0 | 0.212 |
| 5/7/26 - 2100 | 66.4 | - | - | 74 | 58.1 | 62.4 | SSW | 213 | 1.1 | 5.4 | W | 276 | 2 | 0.00 | 0.00 | 46.4 | 82.0 | 0.212 |
| 5/7/26 - 2000 | 72.0 | - | - | 64 | 59.3 | 64.7 | SSW | 195 | 3.4 | 11.1 | SW | 235 | 84 | 0.00 | 0.00 | 46.4 | 82.0 | 0.212 |
| 5/7/26 - 1900 | 75.4 | - | - | 62 | 61.5 | 67.0 | SW | 220 | 7.0 | 14.2 | SW | 222 | 265 | 0.00 | 0.00 | 46.4 | 82.0 | 0.210 |
| 5/7/26 - 1800 | 78.5 | - | - | 57 | 62.2 | 68.0 | SW | 219 | 8.3 | 15.2 | SW | 221 | 455 | 0.00 | 0.00 | 46.4 | 82.0 | 0.202 |
| 5/7/26 - 1700 | 80.8 | 81.0 | - | 45 | 57.2 | 65.0 | SW | 223 | 6.7 | 13.2 | SW | 224 | 640 | 0.00 | 0.00 | 46.4 | 82.0 | 0.188 |
| 5/7/26 - 1600 | 81.5 | - | - | 32 | 49.0 | 60.4 | SW | 236 | 6.1 | 11.8 | SW | 215 | 808 | 0.00 | 0.00 | 46.4 | 82.0 | 0.168 |
| 5/7/26 - 1500 | 80.9 | - | - | 38 | 53.1 | 62.5 | WSW | 250 | 5.9 | 12.1 | W | 266 | 910 | 0.00 | 0.00 | 46.4 | 81.7 | 0.143 |
| 5/7/26 - 1400 | 78.9 | - | - | 56 | 61.9 | 67.9 | NW | 325 | 4.0 | 11.5 | W | 264 | 947 | 0.00 | 0.00 | 46.4 | 80.5 | 0.116 |
| 5/7/26 - 1300 | 76.2 | - | - | 63 | 62.7 | 68.0 | N | 355 | 3.4 | 8.1 | NNE | 27 | 938 | 0.00 | 0.00 | 46.4 | 78.2 | 0.090 |
| 5/7/26 - 1200 | 73.0 | - | - | 70 | 62.7 | 67.4 | N | 351 | 3.6 | 9.1 | N | 4 | 874 | 0.00 | 0.00 | 46.4 | 74.5 | 0.065 |
| 5/7/26 - 1100 | 68.8 | - | - | 78 | 61.8 | 65.7 | N | 353 | 2.7 | 7.1 | NNW | 334 | 755 | 0.00 | 0.00 | 46.4 | 71.9 | 0.042 |
| 5/7/26 - 1000 | 64.1 | - | - | 87 | 60.1 | 63.2 | NNE | 20 | 2.2 | 7.1 | NNW | 331 | 590 | 0.00 | 0.00 | 46.4 | 66.7 | 0.024 |
| 5/7/26 - 0900 | 61.1 | - | - | 91 | 58.5 | 61.0 | NNE | 21 | 1.8 | 5.4 | NNE | 16 | 398 | 0.00 | 0.00 | 46.4 | 62.3 | 0.011 |
| 5/7/26 - 0800 | 54.1 | - | - | 100 | 54.0 | 55.2 | S | 187 | 0.8 | 3.1 | S | 189 | 207 | 0.00 | 0.00 | 46.4 | 59.9 | 0.003 |
| Max | 81.5 | - | 47.2 | 100 | 62.7 | 68.0 | - | 8.3 | 15.8 | - | 947 | 0.00 | 0.00 | 48.6 | 82.0 | 0.217 |
| Avg | 62.5 | - | 43.9 | 74 | 52.2 | 56.5 | - | 3.4 | 7.4 | - | 324 | 0.00 | - | - | - | - |
| Min | 42.0 | - | 40.6 | 32 | 42.0 | 42.3 | - | 0.6 | 3.1 | - | 0 | 0.00 | 0.00 | 41.6 | 48.9 | 0.000 |
| Total | - | - | - | - | - | - | - | - | - | - | - | 0.00 | - | - | - | - |
| Date | Daily Max Temp (°F) | Time of Max Temp | Daily Min Temp (°F) | Time of Min Temp | Daily Rain (In) | Month Precip (In) | Season Precip (In) | Wind Spd (mph) | Daily Max Wind (mph) | Time of Max Wind | Max Wind Dir (°) | Daily ETo (in) | 7 Day ETo (in) | Daily Solar Rad (Cal/cm2) | Dew Pt (°F) | Daily Max RH (%) | Daily Min RH (%) | Hrs 70-85F (hrs) | Hrs > 95F (hrs) | Powdery Mildew Stress (pts) | GDDs (DL) | GDDs (Mx/Mn) | Seas GDDs (DL) | Seas GDDs (Smpl) | Hrs <= 32F (hrs) | Hrs <= 28F (hrs) | Chilling <=45F (hrs) | Chill Hrs 32-45F (hrs) | Utah Chilling (Units) | Degree Hrs (hrs) | Max 1 Min Rain (In) | Max 1 Min Rain Time | Max 15 Min Rain (In) | Max 15 Min Precip Time | Max 60 Min Rain (In) | Max 60 Min Rain Time | MinBV Day (V) |
|---|---|---|---|---|---|---|---|---|---|---|---|---|---|---|---|---|---|---|---|---|---|---|---|---|---|---|---|---|---|---|---|---|---|---|---|---|---|
| 5/8/26 | 81.6 | 1456 | 41.6 | 0532 | 0.00 | 0.12 | 23.07 | 3.7 | 15.8 | 1411 | SW | 234 | 0.217 | 1.13 | 669 | 49.3 | 100 | 32 | 8.83 | 0.00 | 50 | 13.4 | 11.6 | 260 | 193 | 0.0 | 0.0 | 4.4 | 4.4 | 1.0 | 111.2 | - | - | - | - | - | - | 12.6 |
| 5/7/26 | 82.0 | 1543 | 46.4 | 0617 | 0.00 | 0.12 | 23.07 | 3.2 | 15.2 | 1755 | SW | 221 | 0.212 | 1.11 | 679 | 55.4 | 100 | 28 | 9.18 | 0.00 | 30 | 13.9 | 14.2 | 247 | 181 | 0.0 | 0.0 | 0.0 | 0.0 | 1.0 | 117.3 | - | - | - | - | - | - | 12.6 |
| 5/6/26 | 78.4 | 1613 | 52.0 | 0020 | 0.00 | 0.12 | 23.07 | 2.2 | 13.8 | 1521 | SW | 221 | 0.175 | 1.11 | 590 | 56.2 | 100 | 50 | 5.73 | 0.00 | 10 | 12.8 | 15.2 | 233 | 167 | 0.0 | 0.0 | 0.0 | 0.0 | 1.0 | 65.7 | - | - | - | - | - | - | 12.6 |
| 5/5/26 | 70.3 | 1648 | 46.9 | 0541 | 0.00 | 0.12 | 23.07 | 3.5 | 15.2 | 1807 | SSW | 198 | 0.160 | 1.13 | 600 | 52.6 | 100 | 61 | 0.03 | 0.00 | 20 | 7.7 | 8.6 | 220 | 152 | 0.0 | 0.0 | 0.0 | 0.0 | 0.0 | 11.9 | - | - | - | - | - | - | 12.6 |
| 5/4/26 | 58.3 | 1137 | 49.8 | 0025 | 0.12 | 0.12 | 23.07 | 3.0 | 11.8 | 1943 | WSW | 251 | 0.051 | 1.14 | 191 | 51.0 | 100 | 76 | 0.00 | 0.00 | 30 | 3.5 | 4.0 | 212 | 143 | 0.0 | 0.0 | 0.0 | 0.0 | 3.0 | 0.0 | 0.01 | 2147 | 0.05 | 2149 | 0.07 | 1403 | 12.6 |
| 5/3/26 | 63.6 | 1657 | 46.6 | 0630 | 0.00 | 0.00 | 22.95 | 4.8 | 18.5 | 1531 | S | 182 | 0.125 | 1.24 | 503 | 50.3 | 100 | 65 | 0.00 | 0.00 | 40 | 5.2 | 5.1 | 209 | 139 | 0.0 | 0.0 | 0.0 | 0.0 | 2.5 | 0.0 | - | - | - | - | - | - | 12.6 |
| 5/2/26 | 77.0 | 1340 | 48.7 | 0331 | 0.00 | 0.00 | 22.95 | 3.6 | 18.5 | 1450 | SSW | 210 | 0.187 | 1.23 | 609 | 50.9 | 100 | 23 | 5.12 | 0.00 | 50 | 10.0 | 12.9 | 204 | 134 | 0.0 | 0.0 | 0.0 | 0.0 | 1.5 | 46.1 | - | - | - | - | - | - | 12.6 |
| 5/1/26 | 81.7 | 1458 | 45.0 | 0551 | 0.00 | 0.00 | 22.95 | 3.3 | 12.1 | 1444 | WSW | 245 | 0.198 | 1.17 | 597 | 51.4 | 100 | 27 | 9.57 | 0.00 | 60 | 14.6 | 13.4 | 194 | 121 | 0.0 | 0.0 | 0.0 | 0.0 | 0.5 | 125.6 | - | - | - | - | - | - | 12.6 |
| 4/30/26 | 81.7 | 1550 | 40.5 | 0609 | 0.00 | 2.78 | 22.95 | 3.3 | 13.2 | 1812 | W | 263 | 0.212 | 1.15 | 669 | 46.9 | 100 | 22 | 9.14 | 0.00 | 40 | 13.4 | 11.1 | 179 | 108 | 0.0 | 0.0 | 5.6 | 5.6 | 1.0 | 115.7 | - | - | - | - | - | - | 12.6 |
| 4/29/26 | 77.2 | 1636 | 40.1 | 0611 | 0.00 | 2.78 | 22.95 | 3.2 | 13.8 | 1315 | WSW | 240 | 0.200 | 1.11 | 664 | 46.0 | 100 | 30 | 7.13 | 0.00 | 20 | 11.1 | 8.6 | 166 | 97 | 0.0 | 0.0 | 5.7 | 5.7 | 2.0 | 73.2 | - | - | - | - | - | - | 12.6 |
| 4/28/26 | 70.3 | 1445 | 38.0 | 0548 | 0.00 | 2.78 | 22.95 | 2.9 | 13.5 | 1803 | SSW | 211 | 0.171 | 1.02 | 612 | 45.4 | 100 | 28 | 0.16 | 0.00 | 0 | 7.8 | 4.2 | 155 | 88 | 0.0 | 0.0 | 6.6 | 6.6 | 3.0 | 22.9 | - | - | - | - | - | - | 12.6 |
| 4/27/26 | 65.3 | 1534 | 43.6 | 0023 | 0.00 | 2.78 | 22.95 | 2.5 | 13.5 | 1109 | NE | 56 | 0.143 | 0.94 | 538 | 45.3 | 100 | 37 | 0.00 | 0.00 | 0 | 4.8 | 4.4 | 147 | 84 | 0.0 | 0.0 | 1.0 | 1.0 | 3.0 | 0.0 | - | - | - | - | - | - | 12.6 |
| 4/26/26 | 60.7 | 1419 | 46.5 | 0617 | 0.00 | 2.78 | 22.95 | 4.2 | 16.5 | 1748 | S | 188 | 0.117 | 0.83 | 469 | 44.6 | 93 | 51 | 0.00 | 0.00 | 0 | 2.7 | 3.6 | 142 | 80 | 0.0 | 0.0 | 0.0 | 0.0 | 3.0 | 0.0 | - | - | - | - | - | - | 12.6 |
| 4/25/26 | 59.9 | 1335 | 42.6 | 0405 | 0.00 | 2.78 | 22.95 | 4.7 | 18.2 | 1731 | SSW | 194 | 0.125 | 0.87 | 570 | 47.4 | 100 | 71 | 0.00 | 0.00 | 0 | 2.7 | 1.2 | 139 | 76 | 0.0 | 0.0 | 5.5 | 5.5 | 3.5 | 0.0 | - | - | - | - | - | - | 12.6 |
| 4/24/26 | 70.7 | 1321 | 39.7 | 0626 | 0.00 | 2.78 | 22.95 | 4.0 | 17.5 | 1551 | S | 186 | 0.180 | 0.92 | 639 | 47.4 | 100 | 34 | 0.29 | 0.00 | 0 | 7.9 | 5.2 | 137 | 75 | 0.0 | 0.0 | 6.3 | 6.3 | 3.0 | 24.2 | - | - | - | - | - | - | 12.6 |
| 4/23/26 | 71.6 | 1720 | 35.8 | 0621 | 0.00 | 2.78 | 22.95 | 3.1 | 13.8 | 1749 | SSW | 192 | 0.176 | 0.91 | 647 | 43.7 | 100 | 32 | 0.85 | 0.00 | 0 | 7.0 | 3.7 | 129 | 70 | 0.0 | 0.0 | 7.0 | 7.0 | 3.0 | 19.0 | - | - | - | - | - | - | 12.6 |
| 4/22/26 | 62.2 | 1627 | 40.5 | 0059 | 0.02 | 2.78 | 22.95 | 2.1 | 10.8 | 1613 | NW | 315 | 0.111 | 0.90 | 448 | 46.2 | 100 | 52 | 0.00 | 0.00 | 0 | 3.3 | 1.3 | 122 | 66 | 0.0 | 0.0 | 4.7 | 4.7 | 4.0 | 0.0 | 0.01 | 1137 | 0.01 | 1151 | 0.01 | 1236 | 12.6 |
| 4/21/26 | 58.1 | 1655 | 41.1 | 2355 | 0.22 | 2.76 | 22.93 | 3.5 | 17.2 | 1615 | SW | 217 | 0.093 | 0.92 | 405 | 46.2 | 100 | 57 | 0.00 | 0.00 | 0 | 1.5 | 0.0 | 118 | 65 | 0.0 | 0.0 | 2.8 | 2.8 | 5.5 | 0.0 | 0.01 | 1354 | 0.07 | 0940 | 0.16 | 1002 | 12.6 |
| 4/20/26 | 54.4 | 1529 | 46.4 | 0430 | 0.54 | 2.54 | 22.71 | 1.8 | 14.2 | 1155 | E | 96 | 0.028 | 0.96 | 120 | 48.1 | 100 | 39 | 0.00 | 0.00 | 0 | 0.5 | 0.4 | 117 | 65 | 0.0 | 0.0 | 0.0 | 0.0 | 14.0 | 0.0 | 0.01 | 2349 | 0.04 | 1345 | 0.10 | 1409 | 12.5 |
| 4/19/26 | 68.4 | 1332 | 37.4 | 0634 | 0.00 | 2.00 | 22.17 | 3.5 | 14.8 | 1428 | S | 186 | 0.154 | 1.07 | 446 | 31.6 | 100 | 13 | 0.00 | 0.00 | 0 | 7.0 | 2.9 | 116 | 64 | 0.0 | 0.0 | 6.9 | 6.9 | 2.0 | 8.3 | - | - | - | - | - | - | 12.6 |
| 4/18/26 | 73.6 | 1458 | 35.5 | 0627 | 0.00 | 2.00 | 22.17 | 3.1 | 12.1 | 1709 | SSW | 200 | 0.174 | 0.99 | 580 | 41.3 | 100 | 28 | 4.44 | 0.00 | 0 | 8.6 | 4.6 | 110 | 61 | 0.0 | 0.0 | 6.9 | 6.9 | 2.5 | 40.2 | - | - | - | - | - | - | 12.6 |
| 4/17/26 | 72.4 | 1726 | 31.7 | 0655 | 0.00 | 2.00 | 22.17 | 2.9 | 12.5 | 1854 | SSW | 194 | 0.176 | 0.86 | 637 | 33.5 | 100 | 16 | 2.95 | 0.00 | 10 | 7.5 | 2.0 | 101 | 57 | 0.5 | 0.0 | 9.6 | 9.1 | 3.5 | 28.6 | - | - | - | - | - | - | 12.5 |
| 4/16/26 | 65.8 | 1547 | 34.4 | 0656 | 0.00 | 2.00 | 22.17 | 2.8 | 14.8 | 1237 | NNE | 25 | 0.164 | 0.72 | 635 | 35.1 | 100 | 18 | 0.00 | 0.00 | 20 | 4.8 | 0.1 | 93 | 55 | 0.0 | 0.0 | 10.3 | 10.3 | 4.5 | 0.0 | - | - | - | - | - | - | 12.5 |
| 4/15/26 | 63.6 | 1404 | 35.9 | 0608 | 0.00 | 2.00 | 22.17 | 3.6 | 19.2 | 1601 | SSW | 210 | 0.128 | 0.70 | 514 | 45.2 | 100 | 53 | 0.00 | 0.00 | 30 | 3.7 | 0.0 | 89 | 55 | 0.0 | 0.0 | 7.6 | 7.6 | 4.0 | 0.0 | - | - | - | - | - | - | 12.6 |
| 4/14/26 | 65.7 | 1705 | 35.0 | 0615 | 0.00 | 2.00 | 22.17 | 3.2 | 14.5 | 1310 | WSW | 258 | 0.140 | 0.74 | 564 | 44.3 | 100 | 45 | 0.00 | 0.00 | 40 | 4.6 | 0.3 | 85 | 55 | 0.0 | 0.0 | 9.0 | 9.0 | 4.0 | 0.0 | - | - | - | - | - | - | 12.6 |
| 4/13/26 | 63.4 | 1549 | 34.7 | 0405 | 0.00 | 2.00 | 22.17 | 2.7 | 12.8 | 1612 | WNW | 283 | 0.130 | 0.78 | 547 | 42.8 | 100 | 49 | 0.00 | 0.00 | 50 | 3.3 | 0.0 | 80 | 54 | 0.0 | 0.0 | 9.7 | 9.7 | 4.0 | 0.0 | - | - | - | - | - | - | 12.6 |
| 4/12/26 | 56.0 | 1629 | 39.6 | 2253 | 0.14 | 2.00 | 22.17 | 5.0 | 17.5 | 1332 | SSW | 208 | 0.077 | 0.84 | 360 | 44.5 | 100 | 62 | 0.00 | 0.00 | 60 | 0.9 | 0.0 | 77 | 54 | 0.0 | 0.0 | 10.0 | 10.0 | 6.5 | 0.0 | 0.01 | 1213 | 0.04 | 0800 | 0.06 | 0830 | 12.5 |
| 4/11/26 | 54.4 | 1246 | 42.4 | 1821 | 0.78 | 1.86 | 22.03 | 4.1 | 28.2 | 1554 | SSW | 203 | 0.040 | 0.93 | 200 | 47.3 | 100 | 80 | 0.00 | 0.00 | 70 | 0.4 | 0.0 | 76 | 54 | 0.0 | 0.0 | 8.6 | 8.6 | 16.5 | 0.0 | 0.06 | 1614 | 0.17 | 1625 | 0.26 | 1703 | 12.6 |
| 4/10/26 | 58.2 | 1157 | 46.9 | 2353 | 1.02 | 1.08 | 21.25 | 1.5 | 10.8 | 1431 | SSE | 160 | 0.042 | 1.06 | 169 | 51.4 | 100 | 80 | 0.00 | 0.00 | 80 | 2.3 | 2.6 | 76 | 54 | 0.0 | 0.0 | 0.0 | 0.0 | 5.5 | 0.0 | 0.02 | 1516 | 0.11 | 1844 | 0.27 | 1608 | 12.5 |
| 4/9/26 | 69.7 | 1333 | 43.5 | 0658 | 0.00 | 0.06 | 20.23 | 4.4 | 17.8 | 1308 | SSW | 202 | 0.144 | 1.18 | 510 | 50.3 | 100 | 52 | 0.00 | 0.00 | 90 | 7.6 | 6.6 | 74 | 52 | 0.0 | 0.0 | 3.2 | 3.2 | 1.5 | 12.5 | - | - | - | - | - | - | 12.6 |
| Max | 82.0 | - | 52.0 | - | 1.02 | 2.78 | 23.07 | 5.0 | 28.2 | - | - | 0.217 | 1.24 | 679 | 56.2 | 100 | 80 | 9.57 | 0.00 | - | 14.6 | 15.2 | - | - | 0.5 | 0.0 | 10.3 | 10.3 | 16.5 | 125.6 | 0.06 | - | 0.17 | - | 0.27 | - | 12.6 |
| Avg | - | - | - | - | - | - | - | 3.3 | - | - | - | - | - | - | 46.4 | - | - | 2.11 | 0.00 | - | 6.5 | 4.9 | - | - | 0.0 | 0.0 | 4.4 | 4.4 | 3.7 | - | - | - | - | - | - | - | - |
| Min | 54.4 | - | 31.7 | - | 0.00 | 0.00 | 20.23 | 1.5 | 10.8 | - | - | 0.028 | 0.70 | 120 | 31.6 | 93 | 13 | 0.00 | 0.00 | - | 0.4 | 0.0 | - | - | 0.0 | 0.0 | 0.0 | 0.0 | 0.0 | 0.0 | 0.01 | - | 0.01 | - | 0.01 | - | 12.5 |
| Total | - | - | - | - | - | - | - | - | - | - | - | - | - | - | - | - | - | 63.42 | 0.00 | - | 194.4 | 147.8 | - | - | 0.5 | 0.0 | 131.4 | 130.9 | 110.0 | - | - | - | - | - | - | - | - |
| Temperature (°F) | Max Wind Gust (mph) | Precip (in) | Days | |||||||||||
|---|---|---|---|---|---|---|---|---|---|---|---|---|---|---|
| Month | Days | Avg High | Avg Low | Max | Min | Avg | Max | Total | Daily Min Temp < 28 | Daily Min Temp < 32 | Daily Max Temp > 90 | Daily Max Temp > 100 | Daily Rain > 0.01 | Daily Rain > 0.1 |
| Jan 2026 | 31 | 60.8 | 33.1 | 74.6 | 23.8 | 11.4 | 35.6 | 3.93 | 7 | 19 | 0 | 0 | 6 | 5 |
| Feb 2026 | 28 | 60.6 | 36.7 | 73 | 23.7 | 13.8 | 23.2 | 3.47 | 2 | 10 | 0 | 0 | 10 | 8 |
| Mar 2026 | 31 | 76.3 | 38.4 | 92 | 30.1 | 13.8 | 23.2 | 0.02 | 0 | 2 | 1 | 0 | 1 | 0 |
| Apr 2026 | 30 | 67.4 | 39.2 | 81.7 | 31.7 | 15.3 | 28.2 | 2.78 | 0 | 2 | 0 | 0 | 7 | 5 |
| May 2026 | 8 | 74.1 | 47.1 | 82 | 41.6 | 15.1 | 18.5 | 0.12 | 0 | 0 | 0 | 0 | 1 | 1 |
| Total | 128 | - | - | - | - | - | - | 10.32 | 9 | 33 | 1 | 0 | 25 | 19 |
| Average | 25.6 | 66.9 | 37.5 | 66.9 | 37.5 | 13.6 | - | 2.06 | 1.8 | 6.6 | 0.2 | 0 | 5 | 3.8 |
| Maximum | 31 | 76.3 | 47.1 | 92 | - | - | 35.6 | 3.93 | 7 | 19 | 1 | 0 | 10 | 8 |
| Minimum | 8 | 60.6 | 33.1 | - | 23.7 | - | - | 0.02 | 0 | 0 | 0 | 0 | 1 | 0 |
| Temperature (°F) | Max Wind Gust (mph) | Precip (in) | Days | |||||||||||
|---|---|---|---|---|---|---|---|---|---|---|---|---|---|---|
| Month | Days | Avg High | Avg Low | Max | Min | Avg | Max | Total | Daily Min Temp < 28 | Daily Min Temp < 32 | Daily Max Temp > 90 | Daily Max Temp > 100 | Daily Rain > 0.01 | Daily Rain > 0.1 |
| Jan 2025 | 31 | 60.7 | 29.7 | 69.3 | 22.5 | 10.3 | 19.2 | 0.8 | 16 | 22 | 0 | 0 | 3 | 2 |
| Feb 2025 | 28 | 58.3 | 33.8 | 80 | 23.6 | 14.5 | 34.6 | 8.7 | 5 | 14 | 0 | 0 | 11 | 8 |
| Mar 2025 | 31 | 58.9 | 36 | 82.1 | 29 | 18.5 | 43.3 | 4.21 | 0 | 10 | 0 | 0 | 11 | 7 |
| Apr 2025 | 30 | 70.4 | 40.1 | 83.3 | 31.2 | 15.3 | 22.9 | 0.65 | 0 | 2 | 0 | 0 | 4 | 2 |
| May 2025 | 31 | 78.9 | 44.1 | 98.2 | 36.9 | 16.7 | 23.2 | 0.1 | 0 | 0 | 2 | 0 | 1 | 0 |
| Jun 2025 | 30 | 86.9 | 50.5 | 94.5 | 40.5 | 16.6 | 20.5 | 0 | 0 | 0 | 9 | 0 | 0 | 0 |
| Jul 2025 | 31 | 89.5 | 53.9 | 99.1 | 45.3 | 16.7 | 20.5 | 0 | 0 | 0 | 15 | 0 | 0 | 0 |
| Aug 2025 | 31 | 92.4 | 53.4 | 100.2 | 43.5 | 17 | 20.9 | 0 | 0 | 0 | 21 | 1 | 0 | 0 |
| Sep 2025 | 30 | 85 | 52.7 | 99.6 | 45.5 | 15.6 | 20.9 | 0.36 | 0 | 0 | 11 | 0 | 4 | 2 |
| Oct 2025 | 31 | 72 | 42.6 | 85 | 34.5 | 12.7 | 20.5 | 1.08 | 0 | 0 | 0 | 0 | 6 | 2 |
| Nov 2025 | 30 | 65.7 | 39.4 | 80 | 29.7 | 12.1 | 31.6 | 3.58 | 0 | 3 | 0 | 0 | 9 | 4 |
| Dec 2025 | 31 | 61.4 | 36 | 72.4 | 27.6 | 13 | 43.3 | 7.73 | 2 | 15 | 0 | 0 | 11 | 9 |
| Total | 365 | - | - | - | - | - | - | 27.21 | 23 | 66 | 58 | 1 | 60 | 36 |
| Average | 30.4 | 73.4 | 42.7 | 73.4 | 42.7 | 14.9 | - | 2.27 | 1.9 | 5.5 | 4.8 | 0.1 | 5 | 3 |
| Maximum | 31 | 92.4 | 53.9 | 100.2 | - | - | 43.3 | 8.7 | 16 | 22 | 21 | 1 | 11 | 9 |
| Minimum | 28 | 58.3 | 29.7 | - | 22.5 | - | - | 0 | 0 | 0 | 0 | 0 | 0 | 0 |